createdAt,value
2022-08-07T00:03:02.771Z,4.55
2022-08-07T00:08:08.371Z,4.50
2022-08-07T00:13:23.681Z,4.80
2022-08-07T00:18:31.776Z,3.72
2022-08-07T00:23:39.536Z,4.18
2022-08-07T00:28:55.442Z,4.50
2022-08-07T00:34:01.987Z,4.45
2022-08-07T00:39:08.236Z,4.07
2022-08-07T00:44:20.584Z,4.43
2022-08-07T00:50:17.114Z,3.08
2022-08-07T00:54:54.295Z,4.38
2022-08-07T01:00:02.134Z,4.55
2022-08-07T01:05:19.277Z,3.72
2022-08-07T01:10:24.972Z,3.65
2022-08-07T01:16:01.306Z,3.20
2022-08-07T01:21:07.641Z,4.00
2022-08-07T01:26:28.249Z,3.13
2022-08-07T01:31:41.678Z,3.50
2022-08-07T01:36:52.735Z,3.05
2022-08-07T01:42:38.841Z,3.17
2022-08-07T01:48:19.445Z,2.88
2022-08-07T01:52:57.221Z,3.03
2022-08-07T01:58:27.296Z,1.92
2022-08-07T02:03:42.677Z,3.03
2022-08-07T02:08:57.775Z,2.72
2022-08-07T02:14:03.392Z,3.08
2022-08-07T02:20:04.045Z,2.58
2022-08-07T02:24:38.551Z,2.90
2022-08-07T02:29:53.932Z,2.63
2022-08-07T02:35:01.024Z,2.67
2022-08-07T02:40:30.111Z,1.80
2022-08-07T02:45:59.001Z,1.92
2022-08-07T02:51:06.976Z,2.40
2022-08-07T02:56:22.263Z,2.00
2022-08-07T03:01:35.867Z,1.60
2022-08-07T03:06:44.762Z,1.98
2022-08-07T03:11:57.973Z,1.65
2022-08-07T03:17:08.710Z,2.45
2022-08-07T03:22:19.125Z,2.10
2022-08-07T03:27:30.539Z,1.27
2022-08-07T03:32:58.803Z,1.77
2022-08-07T03:38:06.831Z,1.70
2022-08-07T03:43:18.499Z,1.80
2022-08-07T03:48:23.894Z,2.78
2022-08-07T03:54:05.976Z,2.40
2022-08-07T04:04:17.376Z,1.73
2022-08-07T04:09:24.022Z,1.90
2022-08-07T04:14:37.616Z,2.50
2022-08-07T04:19:52.832Z,2.05
2022-08-07T04:25:01.223Z,2.28
2022-08-07T04:30:21.041Z,2.83
2022-08-07T04:35:35.806Z,2.40
2022-08-07T04:40:52.466Z,1.58
2022-08-07T04:46:08.063Z,1.52
2022-08-07T04:51:27.682Z,2.28
2022-08-07T04:58:10.524Z,1.67
2022-08-07T05:02:16.981Z,2.47
2022-08-07T05:07:36.436Z,2.35
2022-08-07T05:12:46.592Z,2.10
2022-08-07T05:18:09.028Z,3.15
2022-08-07T05:23:19.348Z,1.60
2022-08-07T05:33:37.819Z,2.25
2022-08-07T05:38:59.849Z,2.00
2022-08-07T05:49:20.970Z,2.55
2022-08-07T05:54:31.513Z,1.52
2022-08-07T05:59:57.157Z,2.45
2022-08-07T06:05:08.134Z,2.20
2022-08-07T06:10:16.071Z,2.05
2022-08-07T06:15:22.409Z,2.45
2022-08-07T06:20:50.730Z,2.25
2022-08-07T06:26:15.473Z,1.23
2022-08-07T06:31:20.775Z,1.40
2022-08-07T06:36:35.285Z,1.40
2022-08-07T06:42:02.350Z,1.83
2022-08-07T06:47:10.643Z,1.67
2022-08-07T06:52:31.811Z,2.42
2022-08-07T06:57:48.341Z,2.47
2022-08-07T07:03:00.978Z,1.42
2022-08-07T07:08:18.437Z,2.10
2022-08-07T07:13:57.865Z,2.83
2022-08-07T07:19:41.024Z,2.35
2022-08-07T07:24:35.760Z,2.30
2022-08-07T07:30:08.772Z,1.42
2022-08-07T07:35:13.720Z,2.33
2022-08-07T07:40:26.155Z,2.20
2022-08-07T07:46:49.981Z,1.55
2022-08-07T07:50:57.771Z,2.33
2022-08-07T07:56:07.661Z,2.20
2022-08-07T08:02:01.812Z,2.88
2022-08-07T08:06:50.964Z,2.55
2022-08-07T08:12:05.128Z,2.83
2022-08-07T08:17:56.563Z,2.58
2022-08-07T08:22:56.398Z,1.67
2022-08-07T08:28:07.391Z,2.55
2022-08-07T08:33:18.995Z,3.05
2022-08-07T08:38:30.795Z,2.53
2022-08-07T08:43:59.226Z,2.97
2022-08-07T08:49:10.343Z,3.58
2022-08-07T08:54:25.060Z,3.38
2022-08-07T08:59:42.098Z,3.35
2022-08-07T09:04:58.704Z,3.13
2022-08-07T09:10:08.183Z,3.40
2022-08-07T09:16:22.816Z,2.97
2022-08-07T09:21:04.914Z,3.30
2022-08-07T09:26:20.820Z,2.45
2022-08-07T09:31:48.676Z,2.65
2022-08-07T09:37:02.327Z,2.45
2022-08-07T09:42:17.151Z,3.53
2022-08-07T09:47:59.290Z,2.72
2022-08-07T09:53:05.258Z,3.45
2022-08-07T09:58:33.150Z,3.25
2022-08-07T10:04:03.716Z,3.00
2022-08-07T10:09:59.064Z,2.75
2022-08-07T10:15:15.410Z,2.60
2022-08-07T10:20:35.060Z,2.55
2022-08-07T10:25:58.129Z,3.22
2022-08-07T10:31:18.736Z,2.55
2022-08-07T10:41:46.605Z,2.90
2022-08-07T10:47:11.502Z,2.83
2022-08-07T10:52:31.847Z,2.53
2022-08-07T10:57:51.544Z,3.20
2022-08-07T11:03:11.169Z,2.63
2022-08-07T11:08:30.229Z,2.65
2022-08-07T11:14:46.451Z,1.90
2022-08-07T11:19:08.368Z,2.72
2022-08-07T11:24:25.292Z,2.78
2022-08-07T11:29:43.005Z,3.25
2022-08-07T11:34:52.455Z,2.85
2022-08-07T11:40:19.271Z,2.88
2022-08-07T11:45:35.776Z,2.45
2022-08-07T11:50:57.710Z,4.03
2022-08-07T11:56:26.366Z,2.92
2022-08-07T12:01:59.697Z,3.30
2022-08-07T12:07:20.219Z,2.67
2022-08-07T12:12:39.897Z,2.85
2022-08-07T12:17:59.280Z,2.25
2022-08-07T12:24:05.981Z,2.95
2022-08-07T12:28:56.715Z,2.42
2022-08-07T12:34:04.077Z,2.42
2022-08-07T12:39:42.602Z,2.33
2022-08-07T12:44:38.568Z,2.35
2022-08-07T12:50:00.293Z,2.42
2022-08-07T12:55:17.920Z,2.70
2022-08-07T13:00:36.070Z,2.47
2022-08-07T13:06:26.969Z,2.40
2022-08-07T13:12:02.647Z,1.58
2022-08-07T13:17:13.547Z,2.63
2022-08-07T13:22:31.850Z,2.50
2022-08-07T13:28:10.989Z,2.40
2022-08-07T13:33:46.068Z,2.33
2022-08-07T13:38:42.475Z,2.67
2022-08-07T13:43:52.517Z,2.05
2022-08-07T13:49:08.662Z,2.58
2022-08-07T13:54:34.047Z,4.85
2022-08-07T13:59:42.296Z,2.50
2022-08-07T14:04:55.262Z,2.50
2022-08-07T14:10:17.590Z,2.53
2022-08-07T14:15:34.988Z,2.42
2022-08-07T14:20:49.259Z,4.43
2022-08-07T14:26:05.610Z,3.25
2022-08-07T14:31:14.446Z,3.03
2022-08-07T14:36:24.488Z,4.50
2022-08-07T14:41:33.903Z,3.13
2022-08-07T14:47:14.318Z,2.88
2022-08-07T14:52:27.818Z,3.47
2022-08-07T14:57:54.716Z,3.60
2022-08-07T15:03:15.697Z,3.28
2022-08-07T15:13:59.618Z,2.53
2022-08-07T15:19:18.256Z,2.67
2022-08-07T15:41:24.188Z,2.72
2022-08-07T15:57:06.340Z,3.80
2022-08-07T16:02:15.364Z,3.00
2022-08-07T16:08:30.741Z,2.80
2022-08-07T16:13:01.367Z,2.58
2022-08-07T16:18:49.971Z,2.78
2022-08-07T16:23:59.101Z,3.28
2022-08-07T16:30:07.389Z,3.10
2022-08-07T16:34:49.740Z,3.00
2022-08-07T16:40:28.210Z,3.10
2022-08-07T16:46:34.669Z,2.60
2022-08-07T16:51:54.041Z,3.42
2022-08-07T16:57:05.627Z,3.50
2022-08-07T17:02:52.267Z,3.22
2022-08-07T17:08:00.152Z,3.08
2022-08-07T17:13:41.887Z,3.47
2022-08-07T17:19:17.952Z,3.78
2022-08-07T17:24:58.783Z,3.03
2022-08-07T17:30:14.763Z,3.92
2022-08-07T17:35:50.227Z,3.70
2022-08-07T17:42:00.685Z,2.80
2022-08-07T17:46:36.414Z,3.40
2022-08-07T17:52:00.377Z,2.45
2022-08-07T17:57:18.997Z,3.47
2022-08-07T18:07:47.263Z,3.50
2022-08-07T18:13:19.074Z,3.58
2022-08-07T18:18:47.013Z,4.07
2022-08-07T18:24:07.586Z,3.97
2022-08-07T18:30:04.495Z,3.60
2022-08-07T18:35:01.947Z,4.00
2022-08-07T18:40:43.002Z,3.50
2022-08-07T18:46:25.456Z,4.35
2022-08-07T18:52:35.247Z,4.68
2022-08-07T18:56:58.401Z,3.47
2022-08-07T19:02:34.051Z,3.95
2022-08-07T19:07:58.784Z,3.65
2022-08-07T19:13:21.580Z,3.28
2022-08-07T19:18:45.116Z,3.72
2022-08-07T19:24:00.313Z,3.65
2022-08-07T19:31:00.623Z,2.90
2022-08-07T19:34:38.672Z,2.80
2022-08-07T19:39:57.235Z,3.13
2022-08-07T19:46:07.204Z,2.38
2022-08-07T19:50:53.627Z,2.03
2022-08-07T20:01:09.583Z,2.45
2022-08-07T20:06:30.434Z,2.38
2022-08-07T20:12:23.447Z,2.08
2022-08-07T20:17:12.940Z,1.92
2022-08-07T20:22:29.056Z,2.80
2022-08-07T20:27:47.858Z,2.30
2022-08-07T20:33:36.545Z,2.05
2022-08-07T20:38:59.408Z,1.95
2022-08-07T20:44:05.904Z,2.05
2022-08-07T20:55:00.143Z,2.50
2022-08-07T21:00:09.506Z,1.88
2022-08-07T21:05:43.054Z,2.38
2022-08-07T21:10:48.865Z,2.25
2022-08-07T21:16:00.466Z,2.25
2022-08-07T21:21:09.383Z,2.08
2022-08-07T21:26:25.329Z,2.58
2022-08-07T21:32:11.010Z,2.03
2022-08-07T21:37:11.853Z,2.30
2022-08-07T21:42:46.724Z,2.13
2022-08-07T21:47:55.214Z,2.30
2022-08-07T21:53:10.278Z,2.53
2022-08-07T21:58:30.581Z,2.10
2022-08-07T22:03:43.168Z,2.65
2022-08-07T22:08:55.833Z,3.30
2022-08-07T22:19:13.385Z,1.85
2022-08-07T22:24:33.133Z,2.90
2022-08-07T22:29:48.386Z,4.10
2022-08-07T22:34:56.576Z,1.73
2022-08-07T22:40:08.708Z,2.20
2022-08-07T22:46:04.386Z,1.80
2022-08-07T22:50:52.104Z,1.30
2022-08-07T22:56:04.386Z,1.30
2022-08-07T23:01:49.325Z,1.80
2022-08-07T23:07:25.948Z,1.70
2022-08-07T23:12:43.865Z,1.50
2022-08-07T23:18:14.819Z,1.65
2022-08-07T23:24:11.848Z,1.95
2022-08-07T23:30:37.429Z,1.58
2022-08-07T23:35:25.822Z,1.30
2022-08-07T23:40:37.139Z,1.33
2022-08-07T23:46:03.229Z,1.60
2022-08-07T23:57:32.306Z,1.00
